createdAt,value
2022-11-17T00:02:52.945Z,74.75
2022-11-17T00:05:54.834Z,72.83
2022-11-17T00:08:56.679Z,72.01
2022-11-17T00:12:22.352Z,72.05
2022-11-17T00:15:24.695Z,71.61
2022-11-17T00:18:45.250Z,69.32
2022-11-17T00:21:47.153Z,74.40
2022-11-17T00:24:49.201Z,74.93
2022-11-17T00:27:50.985Z,71.50
2022-11-17T00:31:11.753Z,72.54
2022-11-17T00:34:14.852Z,71.52
2022-11-17T00:37:17.031Z,71.91
2022-11-17T00:40:18.903Z,72.35
2022-11-17T00:43:20.751Z,72.57
2022-11-17T00:46:22.862Z,71.82
2022-11-17T00:49:27.671Z,70.50
2022-11-17T00:52:29.507Z,71.94
2022-11-17T00:55:31.460Z,70.06
2022-11-17T00:58:35.522Z,72.07
2022-11-17T01:01:37.854Z,72.60
2022-11-17T01:04:39.736Z,72.03
2022-11-17T01:07:41.628Z,71.22
2022-11-17T01:10:43.450Z,69.61
2022-11-17T01:13:45.851Z,69.83
2022-11-17T01:16:47.668Z,72.92
2022-11-17T01:19:49.457Z,76.16
2022-11-17T01:22:51.303Z,72.07
2022-11-17T01:25:53.127Z,73.73
2022-11-17T01:28:55.351Z,71.94
2022-11-17T01:31:57.195Z,69.60
2022-11-17T01:34:59.012Z,70.82
2022-11-17T01:38:00.797Z,70.29
2022-11-17T01:41:04.026Z,71.36
2022-11-17T01:44:24.645Z,74.25
2022-11-17T01:47:28.800Z,72.22
2022-11-17T01:50:37.805Z,74.40
2022-11-17T01:53:39.635Z,73.57
2022-11-17T01:56:42.329Z,71.07
2022-11-17T01:59:49.246Z,72.93
2022-11-17T02:02:51.088Z,73.47
2022-11-17T02:06:16.622Z,71.59
2022-11-17T02:09:18.486Z,68.86
2022-11-17T02:12:20.713Z,73.08
2022-11-17T02:15:22.695Z,71.14
2022-11-17T02:18:24.464Z,74.44
2022-11-17T02:21:33.649Z,74.37
2022-11-17T02:24:41.537Z,76.52
2022-11-17T02:27:49.666Z,76.30
2022-11-17T02:31:10.497Z,74.61
2022-11-17T02:34:16.835Z,71.26
2022-11-17T02:37:29.323Z,70.01
2022-11-17T02:40:32.358Z,72.19
2022-11-17T02:43:54.414Z,70.59
2022-11-17T02:46:58.199Z,73.37
2022-11-17T02:50:01.705Z,72.43
2022-11-17T02:53:03.535Z,70.68
2022-11-17T02:56:05.476Z,69.93
2022-11-17T02:59:07.343Z,72.64
2022-11-17T03:02:12.187Z,74.50
2022-11-17T03:05:27.618Z,73.12
2022-11-17T03:08:33.273Z,69.67
2022-11-17T03:11:40.120Z,72.54
2022-11-17T03:14:41.909Z,74.83
2022-11-17T03:17:46.761Z,77.21
2022-11-17T03:20:54.735Z,78.32
2022-11-17T03:24:00.888Z,77.22
2022-11-17T03:27:10.769Z,74.28
2022-11-17T03:30:12.896Z,73.41
2022-11-17T03:33:15.772Z,78.42
2022-11-17T03:36:19.353Z,80.67
2022-11-17T03:39:24.332Z,78.61
2022-11-17T03:42:27.868Z,75.69
2022-11-17T03:45:39.584Z,78.31
2022-11-17T03:48:43.721Z,78.33
2022-11-17T03:51:45.541Z,75.20
2022-11-17T03:54:47.393Z,76.59
2022-11-17T03:57:51.920Z,74.87
2022-11-17T04:00:53.749Z,75.25
2022-11-17T04:03:55.540Z,78.28
2022-11-17T04:06:57.427Z,80.10
2022-11-17T04:09:59.291Z,78.27
2022-11-17T04:13:19.507Z,77.67
2022-11-17T04:16:21.308Z,77.06
2022-11-17T04:19:23.219Z,76.91
2022-11-17T04:22:25.041Z,74.35
2022-11-17T04:25:46.848Z,74.86
2022-11-17T04:28:49.672Z,77.47
2022-11-17T04:31:51.502Z,75.00
2022-11-17T04:34:53.358Z,72.89
2022-11-17T04:37:55.141Z,70.77
2022-11-17T04:41:35.838Z,69.54
2022-11-17T04:44:37.641Z,69.94
2022-11-17T04:47:39.540Z,75.56
2022-11-17T04:50:41.379Z,74.63
2022-11-17T04:53:43.532Z,72.19
2022-11-17T04:56:45.528Z,72.27
2022-11-17T04:59:47.359Z,72.75
2022-11-17T05:02:49.198Z,74.21
2022-11-17T05:05:51.004Z,77.82
2022-11-17T05:08:56.044Z,77.70
2022-11-17T05:12:16.522Z,77.12
2022-11-17T05:15:38.268Z,77.64
2022-11-17T05:18:40.376Z,78.35
2022-11-17T05:21:42.195Z,76.12
2022-11-17T05:24:44.003Z,76.32
2022-11-17T05:27:45.810Z,75.19
2022-11-17T05:30:47.601Z,77.44
2022-11-17T05:33:49.402Z,74.90
2022-11-17T05:36:51.204Z,72.61
2022-11-17T05:39:52.989Z,73.12
2022-11-17T05:42:57.169Z,73.20
2022-11-17T05:45:59.156Z,74.15
2022-11-17T05:49:00.989Z,76.03
2022-11-17T05:52:02.865Z,72.81
2022-11-17T05:55:04.877Z,71.72
2022-11-17T05:58:10.898Z,74.69
2022-11-17T06:01:13.209Z,70.67
2022-11-17T06:04:15.480Z,69.31
2022-11-17T06:07:18.256Z,69.07
2022-11-17T06:10:20.277Z,70.64
2022-11-17T06:13:26.184Z,70.69
2022-11-17T06:16:28.720Z,72.13
2022-11-17T06:19:34.929Z,72.32
2022-11-17T06:22:36.754Z,72.54
2022-11-17T06:25:38.721Z,71.81
2022-11-17T06:28:40.963Z,73.01
2022-11-17T06:31:42.869Z,72.97
2022-11-17T06:34:49.131Z,71.70
2022-11-17T06:37:53.883Z,69.89
2022-11-17T06:40:55.856Z,68.06
2022-11-17T06:43:57.781Z,68.87
2022-11-17T06:46:59.613Z,68.10
2022-11-17T06:50:01.477Z,68.90
2022-11-17T06:53:04.546Z,71.11
2022-11-17T06:56:09.818Z,74.54
2022-11-17T06:59:11.722Z,69.69
2022-11-17T07:02:13.610Z,68.44
2022-11-17T07:05:15.452Z,66.10
2022-11-17T07:08:19.198Z,65.79
2022-11-17T07:11:21.191Z,68.77
2022-11-17T07:14:23.428Z,67.74
2022-11-17T07:17:25.456Z,63.86
2022-11-17T07:20:27.428Z,63.14
2022-11-17T07:23:29.797Z,66.79
2022-11-17T07:26:31.722Z,68.10
2022-11-17T07:29:33.671Z,66.73
2022-11-17T07:32:35.533Z,65.27
2022-11-17T07:35:37.502Z,63.27
2022-11-17T07:38:40.208Z,61.95
2022-11-17T07:41:42.442Z,60.14
2022-11-17T07:44:44.412Z,59.49
2022-11-17T07:47:46.864Z,59.65
2022-11-17T07:50:48.819Z,63.73
2022-11-17T07:53:50.682Z,66.43
2022-11-17T07:56:52.798Z,68.35
2022-11-17T07:59:54.754Z,68.01
2022-11-17T08:03:00.003Z,66.83
2022-11-17T08:06:03.124Z,67.57
2022-11-17T08:09:06.406Z,67.21
2022-11-17T08:12:08.850Z,66.86
2022-11-17T08:15:11.454Z,65.68
2022-11-17T08:18:13.608Z,68.23
2022-11-17T08:21:15.770Z,67.21
2022-11-17T08:24:17.867Z,67.07
2022-11-17T08:27:20.013Z,64.33
2022-11-17T08:30:22.194Z,65.40
2022-11-17T08:33:24.266Z,62.40
2022-11-17T08:36:26.266Z,64.18
2022-11-17T08:39:28.613Z,64.66
2022-11-17T08:42:30.512Z,64.98
2022-11-17T08:45:32.418Z,64.89
2022-11-17T08:48:34.566Z,64.50
2022-11-17T08:51:37.023Z,62.94
2022-11-17T08:54:38.862Z,61.17
2022-11-17T08:57:40.790Z,60.63
2022-11-17T09:00:43.031Z,63.34
2022-11-17T09:03:45.542Z,61.58
2022-11-17T09:06:47.394Z,64.11
2022-11-17T09:09:49.328Z,60.35
2022-11-17T09:12:55.020Z,62.26
2022-11-17T09:16:00.469Z,60.18
2022-11-17T09:19:02.866Z,59.19
2022-11-17T09:22:05.435Z,58.51
2022-11-17T09:25:13.030Z,58.40
2022-11-17T09:28:15.599Z,60.17
2022-11-17T09:31:19.026Z,60.75
2022-11-17T09:34:23.512Z,62.26
2022-11-17T09:37:26.526Z,61.22
2022-11-17T09:40:31.889Z,57.92
2022-11-17T09:43:38.023Z,62.82
2022-11-17T09:46:58.611Z,61.71
2022-11-17T09:50:03.713Z,60.67
2022-11-17T09:53:05.535Z,60.47
2022-11-17T09:56:07.965Z,61.67
2022-11-17T09:59:12.331Z,60.75
2022-11-17T10:02:14.287Z,60.78
2022-11-17T10:05:20.194Z,62.78
2022-11-17T10:08:38.238Z,57.54
2022-11-17T10:11:41.291Z,54.23
2022-11-17T10:14:43.187Z,58.48
2022-11-17T10:17:45.115Z,56.16
2022-11-17T10:20:47.277Z,57.71
2022-11-17T10:23:55.539Z,57.89
2022-11-17T10:26:57.402Z,56.69
2022-11-17T10:30:00.453Z,56.86
2022-11-17T10:33:03.287Z,55.35
2022-11-17T10:36:14.431Z,54.35
2022-11-17T10:39:33.046Z,54.11
2022-11-17T10:42:34.875Z,56.74
2022-11-17T10:45:36.808Z,60.02
2022-11-17T10:48:39.425Z,57.62
2022-11-17T10:51:41.361Z,56.23
2022-11-17T10:54:43.514Z,57.00
2022-11-17T10:57:46.212Z,58.19
2022-11-17T11:00:52.220Z,54.75
2022-11-17T11:03:55.626Z,60.20
2022-11-17T11:07:08.481Z,57.88
2022-11-17T11:10:10.447Z,57.05
2022-11-17T11:13:24.873Z,57.16
2022-11-17T11:16:27.249Z,55.12
2022-11-17T11:19:29.187Z,54.50
2022-11-17T11:23:00.514Z,57.03
2022-11-17T11:26:12.330Z,55.98
2022-11-17T11:29:26.591Z,53.00
2022-11-17T11:32:37.835Z,56.70
2022-11-17T11:35:57.785Z,55.28
2022-11-17T11:39:18.490Z,56.77
2022-11-17T11:42:20.423Z,54.02
2022-11-17T11:45:24.318Z,53.59
2022-11-17T11:48:32.411Z,53.74
2022-11-17T11:51:35.178Z,51.26
2022-11-17T11:54:40.507Z,53.74
2022-11-17T11:57:45.189Z,55.16
2022-11-17T12:00:47.292Z,53.65
2022-11-17T12:04:09.743Z,55.65
2022-11-17T12:07:17.889Z,53.15
2022-11-17T12:10:38.480Z,55.99
2022-11-17T12:13:47.284Z,56.28
2022-11-17T12:16:51.855Z,54.34
2022-11-17T12:19:55.445Z,54.94
2022-11-17T12:23:06.595Z,53.75
2022-11-17T12:26:08.611Z,52.35
2022-11-17T12:29:20.140Z,55.07
2022-11-17T12:32:57.735Z,53.37
2022-11-17T12:36:28.501Z,55.78
2022-11-17T12:39:51.207Z,52.22
2022-11-17T12:43:31.798Z,52.81
2022-11-17T12:46:33.702Z,52.70
2022-11-17T12:49:38.865Z,52.58
2022-11-17T12:52:43.475Z,48.35
2022-11-17T12:55:45.343Z,46.01
2022-11-17T12:59:05.919Z,47.36
2022-11-17T13:02:17.723Z,49.27
2022-11-17T13:05:20.759Z,46.13
2022-11-17T13:08:25.787Z,44.52
2022-11-17T13:11:27.813Z,43.65
2022-11-17T13:14:31.172Z,44.70
2022-11-17T13:17:45.008Z,40.00
2022-11-17T13:20:48.063Z,45.08
2022-11-17T13:23:49.912Z,46.94
2022-11-17T13:26:58.073Z,47.55
2022-11-17T13:30:23.223Z,46.11
2022-11-17T13:33:25.254Z,44.93
2022-11-17T13:36:27.554Z,45.11
2022-11-17T13:39:29.490Z,52.08
2022-11-17T13:42:31.959Z,51.07
2022-11-17T13:45:34.027Z,53.75
2022-11-17T13:48:36.881Z,54.63
2022-11-17T13:51:39.383Z,54.17
2022-11-17T13:54:43.274Z,54.39
2022-11-17T13:58:04.735Z,53.62
2022-11-17T14:01:06.786Z,56.10
2022-11-17T14:04:19.357Z,53.93
2022-11-17T14:07:29.311Z,56.41
2022-11-17T14:10:34.395Z,54.92
2022-11-17T14:13:42.475Z,54.40
2022-11-17T14:16:44.664Z,52.55
2022-11-17T14:19:46.851Z,52.56
2022-11-17T14:23:08.544Z,53.06
2022-11-17T14:26:20.682Z,51.29
2022-11-17T14:29:22.557Z,52.16
2022-11-17T14:32:24.452Z,52.43
2022-11-17T14:35:26.394Z,54.01
2022-11-17T14:38:30.691Z,53.70
2022-11-17T14:41:32.572Z,51.80
2022-11-17T14:44:34.562Z,51.53
2022-11-17T14:47:36.717Z,51.62
2022-11-17T14:50:38.728Z,51.82
2022-11-17T14:53:42.038Z,53.53
2022-11-17T14:56:44.422Z,54.25
2022-11-17T14:59:46.619Z,55.17
2022-11-17T15:02:48.627Z,54.88
2022-11-17T15:05:50.505Z,55.16
2022-11-17T15:08:59.942Z,54.51
2022-11-17T15:12:01.850Z,56.92
2022-11-17T15:15:05.306Z,56.03
2022-11-17T15:18:07.264Z,54.40
2022-11-17T15:21:09.836Z,55.61
2022-11-17T15:24:12.401Z,56.94
2022-11-17T15:27:14.693Z,54.45
2022-11-17T15:30:17.227Z,53.88
2022-11-17T15:33:19.246Z,56.26
2022-11-17T15:36:21.631Z,58.36
2022-11-17T15:39:23.813Z,59.40
2022-11-17T15:42:25.922Z,57.38
2022-11-17T15:45:28.104Z,55.54
2022-11-17T15:48:30.841Z,56.47
2022-11-17T15:51:32.997Z,60.44
2022-11-17T15:54:34.922Z,60.21
2022-11-17T15:57:36.994Z,56.97
2022-11-17T16:00:40.313Z,58.81
2022-11-17T16:03:43.474Z,57.65
2022-11-17T16:06:46.464Z,59.63
2022-11-17T16:09:50.292Z,61.90
2022-11-17T16:12:52.320Z,60.25
2022-11-17T16:15:54.578Z,58.07
2022-11-17T16:18:57.087Z,56.73
2022-11-17T16:21:58.942Z,57.75
2022-11-17T16:25:00.802Z,57.39
2022-11-17T16:28:02.749Z,60.73
2022-11-17T16:31:33.993Z,57.83
2022-11-17T16:34:38.509Z,57.82
2022-11-17T16:37:40.708Z,57.75
2022-11-17T16:40:42.757Z,58.78
2022-11-17T16:43:44.848Z,59.21
2022-11-17T16:46:47.516Z,58.60
2022-11-17T16:49:51.792Z,61.91
2022-11-17T16:52:53.962Z,62.30
2022-11-17T16:55:55.907Z,61.88
2022-11-17T16:58:58.818Z,60.87
2022-11-17T17:02:00.851Z,59.42
2022-11-17T17:05:02.707Z,59.58
2022-11-17T17:08:04.657Z,59.48
2022-11-17T17:11:10.154Z,59.63
2022-11-17T17:14:12.618Z,60.66
2022-11-17T17:17:14.495Z,60.76
2022-11-17T17:20:16.308Z,62.64
2022-11-17T17:23:18.586Z,64.29
2022-11-17T17:26:22.295Z,63.91
2022-11-17T17:29:24.188Z,64.00
2022-11-17T17:32:26.081Z,65.12
2022-11-17T17:35:27.918Z,65.40
2022-11-17T17:38:29.848Z,66.02
2022-11-17T17:41:33.290Z,65.79
2022-11-17T17:44:35.181Z,64.05
2022-11-17T17:47:37.058Z,64.75
2022-11-17T17:50:40.315Z,64.95
2022-11-17T17:53:42.434Z,64.49
2022-11-17T17:56:44.413Z,63.81
2022-11-17T17:59:46.568Z,64.33
2022-11-17T18:02:48.887Z,69.96
2022-11-17T18:05:50.852Z,69.13
2022-11-17T18:08:52.805Z,65.51
2022-11-17T18:11:54.683Z,66.07
2022-11-17T18:14:56.621Z,63.94
2022-11-17T18:17:58.571Z,68.81
2022-11-17T18:21:07.407Z,64.93
2022-11-17T18:24:10.025Z,64.34
2022-11-17T18:27:11.913Z,64.49
2022-11-17T18:30:13.910Z,63.64
2022-11-17T18:33:16.436Z,66.56
2022-11-17T18:36:18.423Z,63.55
2022-11-17T18:39:21.329Z,65.09
2022-11-17T18:42:23.385Z,65.71
2022-11-17T18:45:25.498Z,64.19
2022-11-17T18:48:27.379Z,65.42
2022-11-17T18:51:30.219Z,66.30
2022-11-17T18:54:32.187Z,67.78
2022-11-17T18:57:34.018Z,69.71
2022-11-17T19:00:36.009Z,66.71
2022-11-17T19:03:38.527Z,66.79
2022-11-17T19:06:40.503Z,66.10
2022-11-17T19:09:42.424Z,66.32
2022-11-17T19:12:44.324Z,66.93
2022-11-17T19:15:46.148Z,66.77
2022-11-17T19:18:48.619Z,68.65
2022-11-17T19:21:50.523Z,67.93
2022-11-17T19:24:52.427Z,69.34
2022-11-17T19:27:54.362Z,68.33
2022-11-17T19:31:00.260Z,68.48
2022-11-17T19:34:02.169Z,71.10
2022-11-17T19:37:03.997Z,68.86
2022-11-17T19:40:06.110Z,69.26
2022-11-17T19:43:07.965Z,71.58
2022-11-17T19:46:11.982Z,71.72
2022-11-17T19:49:14.292Z,71.99
2022-11-17T19:52:16.356Z,68.91
2022-11-17T19:55:18.312Z,72.25
2022-11-17T19:58:20.366Z,70.25
2022-11-17T20:01:26.172Z,71.22
2022-11-17T20:04:28.146Z,70.72
2022-11-17T20:07:30.123Z,68.14
2022-11-17T20:10:32.654Z,71.10
2022-11-17T20:13:34.919Z,69.44
2022-11-17T20:16:38.717Z,70.74
2022-11-17T20:19:40.573Z,69.47
2022-11-17T20:22:42.671Z,68.11
2022-11-17T20:25:45.062Z,70.83
2022-11-17T20:28:47.899Z,66.98
2022-11-17T20:31:49.881Z,66.31
2022-11-17T20:34:51.691Z,68.54
2022-11-17T20:37:53.567Z,66.27
2022-11-17T20:40:58.999Z,68.35
2022-11-17T20:44:01.883Z,66.67
2022-11-17T20:47:03.878Z,68.28
2022-11-17T20:50:06.028Z,69.35
2022-11-17T20:53:07.986Z,70.17
2022-11-17T20:56:10.343Z,72.74
2022-11-17T20:59:18.501Z,72.80
2022-11-17T21:02:21.790Z,73.67
2022-11-17T21:05:23.663Z,73.90
2022-11-17T21:08:26.096Z,67.62
2022-11-17T21:12:03.632Z,69.12
2022-11-17T21:15:06.600Z,67.42
2022-11-17T21:18:25.667Z,66.95
2022-11-17T21:21:27.802Z,66.58
2022-11-17T21:24:29.751Z,67.85
2022-11-17T21:27:31.594Z,68.83
2022-11-17T21:30:33.866Z,68.28
2022-11-17T21:33:36.112Z,69.11
2022-11-17T21:36:37.921Z,69.52
2022-11-17T21:39:39.760Z,68.23
2022-11-17T21:42:41.639Z,68.62
2022-11-17T21:45:43.609Z,68.63
2022-11-17T21:48:45.651Z,68.62
2022-11-17T21:51:47.520Z,68.04
2022-11-17T21:54:49.395Z,69.06
2022-11-17T21:57:51.564Z,70.77
2022-11-17T22:00:53.507Z,68.52
2022-11-17T22:03:55.489Z,70.12
2022-11-17T22:06:57.396Z,67.77
2022-11-17T22:09:59.324Z,66.60
2022-11-17T22:13:01.381Z,65.26
2022-11-17T22:16:04.305Z,66.22
2022-11-17T22:19:06.267Z,66.75
2022-11-17T22:22:08.264Z,67.50
2022-11-17T22:25:37.534Z,66.50
2022-11-17T22:28:31.963Z,68.22
2022-11-17T22:31:33.912Z,71.17
2022-11-17T22:34:35.824Z,70.23
2022-11-17T22:37:37.678Z,67.97
2022-11-17T22:40:40.062Z,66.85
2022-11-17T22:43:41.851Z,66.32
2022-11-17T22:46:43.702Z,65.33
2022-11-17T22:49:45.537Z,67.36
2022-11-17T22:52:48.587Z,66.81
2022-11-17T22:55:50.423Z,65.63
2022-11-17T22:58:55.468Z,68.81
2022-11-17T23:02:01.489Z,68.52
2022-11-17T23:05:03.462Z,68.94
2022-11-17T23:08:09.512Z,71.03
2022-11-17T23:14:33.775Z,69.21
2022-11-17T23:17:35.627Z,70.58
2022-11-17T23:20:37.610Z,68.86
2022-11-17T23:23:40.738Z,65.77
2022-11-17T23:26:42.897Z,66.16
2022-11-17T23:29:44.714Z,66.78
2022-11-17T23:32:46.578Z,69.84
2022-11-17T23:35:48.409Z,71.92
2022-11-17T23:38:50.560Z,70.36
2022-11-17T23:41:52.361Z,67.36
2022-11-17T23:44:54.263Z,68.65
2022-11-17T23:47:56.050Z,71.14
2022-11-17T23:50:58.072Z,69.92
2022-11-17T23:54:00.364Z,72.44
2022-11-17T23:57:02.281Z,73.92
